createdAt,value
2023-05-05T00:00:00.365Z,1023.39
2023-05-05T00:00:09.787Z,1023.41
2023-05-05T00:00:19.146Z,1023.37
2023-05-05T00:00:28.547Z,1023.46
2023-05-05T00:00:47.307Z,1023.47
2023-05-05T00:00:56.699Z,1023.40
2023-05-05T00:01:06.159Z,1023.55
2023-05-05T00:01:15.545Z,1023.45
2023-05-05T00:01:24.943Z,1023.39
2023-05-05T00:01:34.370Z,1023.36
2023-05-05T00:01:53.155Z,1023.51
2023-05-05T00:02:02.612Z,1023.35
2023-05-05T00:02:12.009Z,1023.49
2023-05-05T00:02:21.386Z,1023.34
2023-05-05T00:02:30.912Z,1023.45
2023-05-05T00:02:40.283Z,1023.41
2023-05-05T00:02:59.054Z,1023.41
2023-05-05T00:03:08.474Z,1023.49
2023-05-05T00:03:17.866Z,1023.43
2023-05-05T00:03:27.513Z,1023.46
2023-05-05T00:03:36.914Z,1023.41
2023-05-05T00:03:46.282Z,1023.40
2023-05-05T00:04:04.987Z,1023.43
2023-05-05T00:04:14.406Z,1023.42
2023-05-05T00:04:23.837Z,1023.41
2023-05-05T00:04:33.190Z,1023.35
2023-05-05T00:04:42.577Z,1023.41
2023-05-05T00:04:51.989Z,1023.37
2023-05-05T00:05:10.853Z,1023.42
2023-05-05T00:05:20.300Z,1023.43
2023-05-05T00:05:29.689Z,1023.42
2023-05-05T00:05:39.078Z,1023.36
2023-05-05T00:05:48.480Z,1023.40
2023-05-05T00:05:57.908Z,1023.39
2023-05-05T00:06:16.717Z,1023.28
2023-05-05T00:06:26.099Z,1023.42
2023-05-05T00:06:35.486Z,1023.32
2023-05-05T00:06:44.905Z,1023.37
2023-05-05T00:06:54.294Z,1023.34
2023-05-05T00:07:03.656Z,1023.37
2023-05-05T00:07:22.397Z,1023.36
2023-05-05T00:07:31.790Z,1023.45
2023-05-05T00:07:41.160Z,1023.38
2023-05-05T00:07:50.546Z,1023.40
2023-05-05T00:07:59.937Z,1023.38
2023-05-05T00:08:09.343Z,1023.26
2023-05-05T00:08:28.183Z,1023.25
2023-05-05T00:08:37.580Z,1023.24
2023-05-05T00:08:46.981Z,1023.28
2023-05-05T00:08:56.429Z,1023.32
2023-05-05T00:09:05.740Z,1023.30
2023-05-05T00:09:15.117Z,1023.36
2023-05-05T00:09:33.879Z,1023.33
2023-05-05T00:09:43.263Z,1023.35
2023-05-05T00:09:52.644Z,1023.46
2023-05-05T00:10:02.051Z,1023.36
2023-05-05T00:10:11.509Z,1023.33
2023-05-05T00:10:20.891Z,1023.41
2023-05-05T00:10:39.687Z,1023.29
2023-05-05T00:10:49.057Z,1023.29
2023-05-05T00:10:58.455Z,1023.37
2023-05-05T00:11:07.841Z,1023.32
2023-05-05T00:11:17.256Z,1023.29
2023-05-05T00:11:26.666Z,1023.33
2023-05-05T00:11:45.481Z,1023.45
2023-05-05T00:11:54.869Z,1023.44
2023-05-05T00:12:04.252Z,1023.44
2023-05-05T00:12:13.649Z,1023.33
2023-05-05T00:12:23.027Z,1023.41
2023-05-05T00:12:32.437Z,1023.31
2023-05-05T00:12:51.205Z,1023.27
2023-05-05T00:13:00.635Z,1023.32
2023-05-05T00:13:10.032Z,1023.29
2023-05-05T00:13:19.326Z,1023.44
2023-05-05T00:13:28.708Z,1023.27
2023-05-05T00:13:38.093Z,1023.51
2023-05-05T00:13:56.876Z,1023.36
2023-05-05T00:14:06.290Z,1023.31
2023-05-05T00:14:15.679Z,1023.30
2023-05-05T00:14:25.063Z,1023.41
2023-05-05T00:14:34.440Z,1023.40
2023-05-05T00:14:43.846Z,1023.36
2023-05-05T00:15:02.645Z,1023.32
2023-05-05T00:15:12.045Z,1023.40
2023-05-05T00:15:21.481Z,1023.36
2023-05-05T00:15:30.883Z,1023.33
2023-05-05T00:15:40.268Z,1023.35
2023-05-05T00:15:49.678Z,1023.33
2023-05-05T00:16:08.462Z,1023.40
2023-05-05T00:16:17.835Z,1023.30
2023-05-05T00:16:27.269Z,1023.23
2023-05-05T00:16:36.684Z,1023.36
2023-05-05T00:16:46.114Z,1023.31
2023-05-05T00:16:55.488Z,1023.44
2023-05-05T00:17:14.388Z,1023.26
2023-05-05T00:17:23.714Z,1023.35
2023-05-05T00:17:33.141Z,1023.33
2023-05-05T00:17:42.599Z,1023.33
2023-05-05T00:17:51.957Z,1023.26
2023-05-05T00:18:01.389Z,1023.28
2023-05-05T00:18:20.085Z,1023.37
2023-05-05T00:18:29.509Z,1023.31
2023-05-05T00:18:38.907Z,1023.36
2023-05-05T00:18:48.349Z,1023.27
2023-05-05T00:18:57.744Z,1023.34
2023-05-05T00:19:07.137Z,1023.31
2023-05-05T00:19:25.910Z,1023.44
2023-05-05T00:19:35.358Z,1023.40
2023-05-05T00:19:44.698Z,1023.44
2023-05-05T00:19:54.097Z,1023.30
2023-05-05T00:20:03.497Z,1023.43
2023-05-05T00:20:12.906Z,1023.27
2023-05-05T00:20:31.667Z,1023.42
2023-05-05T00:20:41.050Z,1023.31
2023-05-05T00:20:50.442Z,1023.32
2023-05-05T00:20:59.841Z,1023.30
2023-05-05T00:21:09.224Z,1023.33
2023-05-05T00:21:18.610Z,1023.31
2023-05-05T00:21:37.435Z,1023.26
2023-05-05T00:21:46.841Z,1023.21
2023-05-05T00:21:56.217Z,1023.26
2023-05-05T00:22:05.599Z,1023.29
2023-05-05T00:22:14.987Z,1023.26
2023-05-05T00:22:24.356Z,1023.27
2023-05-05T00:22:43.158Z,1023.23
2023-05-05T00:22:52.540Z,1023.47
2023-05-05T00:23:01.941Z,1023.25
2023-05-05T00:23:11.335Z,1023.39
2023-05-05T00:23:20.717Z,1023.34
2023-05-05T00:23:30.111Z,1023.41
2023-05-05T00:23:48.876Z,1023.24
2023-05-05T00:23:58.261Z,1023.19
2023-05-05T00:24:07.641Z,1023.32
2023-05-05T00:24:17.037Z,1023.28
2023-05-05T00:24:26.414Z,1023.45
2023-05-05T00:24:35.815Z,1023.31
2023-05-05T00:24:54.573Z,1023.33
2023-05-05T00:25:03.961Z,1023.26
2023-05-05T00:25:13.351Z,1023.37
2023-05-05T00:25:22.741Z,1023.27
2023-05-05T00:25:32.137Z,1023.31
2023-05-05T00:25:41.572Z,1023.33
2023-05-05T00:26:00.312Z,1023.37
2023-05-05T00:26:09.688Z,1023.30
2023-05-05T00:26:19.076Z,1023.31
2023-05-05T00:26:28.459Z,1023.34
2023-05-05T00:26:37.842Z,1023.30
2023-05-05T00:26:47.266Z,1023.24
2023-05-05T00:27:06.049Z,1023.29
2023-05-05T00:27:15.438Z,1023.31
2023-05-05T00:27:24.825Z,1023.26
2023-05-05T00:27:34.226Z,1023.39
2023-05-05T00:27:43.691Z,1023.24
2023-05-05T00:27:53.062Z,1023.36
2023-05-05T00:28:11.849Z,1023.31
2023-05-05T00:28:21.244Z,1023.32
2023-05-05T00:28:30.616Z,1023.41
2023-05-05T00:28:40.023Z,1023.37
2023-05-05T00:28:49.401Z,1023.32
2023-05-05T00:28:58.791Z,1023.34
2023-05-05T00:29:17.553Z,1023.30
2023-05-05T00:29:26.941Z,1023.36
2023-05-05T00:29:36.361Z,1023.28
2023-05-05T00:29:45.742Z,1023.26
2023-05-05T00:29:55.119Z,1023.38
2023-05-05T00:30:04.516Z,1023.34
2023-05-05T00:30:23.299Z,1023.21
2023-05-05T00:30:32.678Z,1023.34
2023-05-05T00:30:42.060Z,1023.30
2023-05-05T00:30:51.447Z,1023.26
2023-05-05T00:31:00.862Z,1023.33
2023-05-05T00:31:10.261Z,1023.27
2023-05-05T00:31:29.039Z,1023.28
2023-05-05T00:31:38.444Z,1023.44
2023-05-05T00:31:47.822Z,1023.30
2023-05-05T00:31:57.203Z,1023.30
2023-05-05T00:32:06.611Z,1023.21
2023-05-05T00:32:15.999Z,1023.30
2023-05-05T00:32:34.764Z,1023.28
2023-05-05T00:32:44.173Z,1023.23
2023-05-05T00:32:53.554Z,1023.25
2023-05-05T00:33:03.044Z,1023.26
2023-05-05T00:33:12.303Z,1023.23
2023-05-05T00:33:21.704Z,1023.34
2023-05-05T00:33:40.478Z,1023.26
2023-05-05T00:33:49.863Z,1023.24
2023-05-05T00:33:59.271Z,1023.26
2023-05-05T00:34:08.666Z,1023.20
2023-05-05T00:34:18.048Z,1023.30
2023-05-05T00:34:27.430Z,1023.28
2023-05-05T00:34:46.234Z,1023.13
2023-05-05T00:34:55.631Z,1023.24
2023-05-05T00:35:05.006Z,1023.19
2023-05-05T00:35:14.387Z,1023.25
2023-05-05T00:35:23.778Z,1023.26
2023-05-05T00:35:33.247Z,1023.18
2023-05-05T00:35:52.050Z,1023.21
2023-05-05T00:36:01.481Z,1023.16
2023-05-05T00:36:10.883Z,1023.27
2023-05-05T00:36:20.267Z,1023.22
2023-05-05T00:36:29.662Z,1023.21
2023-05-05T00:36:39.047Z,1023.21
2023-05-05T00:36:57.854Z,1023.21
2023-05-05T00:37:07.227Z,1023.23
2023-05-05T00:37:16.622Z,1023.14
2023-05-05T00:37:26.073Z,1023.14
2023-05-05T00:37:35.472Z,1023.24
2023-05-05T00:37:44.847Z,1023.29
2023-05-05T00:38:03.627Z,1023.14
2023-05-05T00:38:13.015Z,1023.24
2023-05-05T00:38:22.403Z,1023.14
2023-05-05T00:38:31.803Z,1023.21
2023-05-05T00:38:41.207Z,1023.18
2023-05-05T00:38:50.605Z,1023.21
2023-05-05T00:39:09.401Z,1023.13
2023-05-05T00:39:18.825Z,1023.11
2023-05-05T00:39:28.202Z,1023.07
2023-05-05T00:39:37.593Z,1023.24
2023-05-05T00:39:46.958Z,1023.08
2023-05-05T00:39:56.372Z,1023.29
2023-05-05T00:40:15.160Z,1023.06
2023-05-05T00:40:24.539Z,1023.05
2023-05-05T00:40:33.941Z,1023.09
2023-05-05T00:40:43.334Z,1023.00
2023-05-05T00:40:52.723Z,1023.29
2023-05-05T00:41:02.118Z,1023.18
2023-05-05T00:41:20.935Z,1023.00
2023-05-05T00:41:30.353Z,1023.11
2023-05-05T00:41:39.776Z,1023.13
2023-05-05T00:41:49.158Z,1023.02
2023-05-05T00:41:58.554Z,1023.06
2023-05-05T00:42:07.934Z,1023.08
2023-05-05T00:42:26.689Z,1023.11
2023-05-05T00:42:36.102Z,1023.02
2023-05-05T00:42:45.480Z,1023.08
2023-05-05T00:42:54.886Z,1023.05
2023-05-05T00:43:04.278Z,1023.13
2023-05-05T00:43:13.656Z,1023.06
2023-05-05T00:43:32.446Z,1023.07
2023-05-05T00:43:41.800Z,1023.09
2023-05-05T00:43:51.198Z,1023.06
2023-05-05T00:44:00.590Z,1023.08
2023-05-05T00:44:09.963Z,1023.10
2023-05-05T00:44:19.357Z,1023.12
2023-05-05T00:44:38.151Z,1023.15
2023-05-05T00:44:47.573Z,1023.09
2023-05-05T00:44:56.955Z,1023.10
2023-05-05T00:45:06.350Z,1023.05
2023-05-05T00:45:15.752Z,1023.03
2023-05-05T00:45:25.154Z,1023.03
2023-05-05T00:45:43.940Z,1023.10
2023-05-05T00:45:53.315Z,1023.00
2023-05-05T00:46:02.725Z,1023.02
2023-05-05T00:46:12.127Z,1023.02
2023-05-05T00:46:21.604Z,1023.04
2023-05-05T00:46:30.965Z,1023.01
2023-05-05T00:46:49.810Z,1023.01
2023-05-05T00:46:59.133Z,1023.05
2023-05-05T00:47:08.542Z,1022.94
2023-05-05T00:47:17.924Z,1023.02
2023-05-05T00:47:27.368Z,1022.98
2023-05-05T00:47:36.780Z,1023.00
2023-05-05T00:47:55.549Z,1023.00
2023-05-05T00:48:04.975Z,1023.08
2023-05-05T00:48:14.288Z,1022.95
2023-05-05T00:48:23.696Z,1023.03
2023-05-05T00:48:33.092Z,1023.04
2023-05-05T00:48:42.450Z,1022.99
2023-05-05T00:49:01.357Z,1022.93
2023-05-05T00:49:10.774Z,1022.95
2023-05-05T00:49:20.151Z,1023.01
2023-05-05T00:49:29.574Z,1022.98
2023-05-05T00:49:38.959Z,1022.94
2023-05-05T00:49:48.272Z,1023.05
2023-05-05T00:50:07.228Z,1023.03
2023-05-05T00:50:16.434Z,1023.01
2023-05-05T00:50:25.854Z,1023.03
2023-05-05T00:50:35.246Z,1023.03
2023-05-05T00:50:44.649Z,1023.03
2023-05-05T00:50:54.040Z,1023.02
2023-05-05T00:51:12.838Z,1023.00
2023-05-05T00:51:22.233Z,1023.12
2023-05-05T00:51:31.620Z,1022.88
2023-05-05T00:51:41.024Z,1023.14
2023-05-05T00:51:50.439Z,1023.04
2023-05-05T00:51:59.822Z,1023.05
2023-05-05T00:52:18.600Z,1022.95
2023-05-05T00:52:27.986Z,1022.93
2023-05-05T00:52:37.396Z,1022.96
2023-05-05T00:52:46.763Z,1023.07
2023-05-05T00:52:56.182Z,1023.00
2023-05-05T00:53:05.561Z,1022.96
2023-05-05T00:53:24.356Z,1022.99
2023-05-05T00:53:33.743Z,1023.04
2023-05-05T00:53:43.129Z,1022.93
2023-05-05T00:53:52.539Z,1022.96
2023-05-05T00:54:01.898Z,1022.98
2023-05-05T00:54:11.288Z,1022.90
2023-05-05T00:54:30.085Z,1023.00
2023-05-05T00:54:39.460Z,1022.98
2023-05-05T00:54:48.847Z,1022.94
2023-05-05T00:54:58.225Z,1023.01
2023-05-05T00:55:07.640Z,1023.02
2023-05-05T00:55:17.003Z,1023.03
2023-05-05T00:55:35.778Z,1022.95
2023-05-05T00:55:45.149Z,1023.03
2023-05-05T00:55:54.541Z,1022.88
2023-05-05T00:56:03.981Z,1022.97
2023-05-05T00:56:13.379Z,1023.15
2023-05-05T00:56:22.778Z,1022.95
2023-05-05T00:56:41.580Z,1022.95
2023-05-05T00:56:51.352Z,1022.94
2023-05-05T00:57:00.748Z,1022.97
2023-05-05T00:57:10.134Z,1023.00
2023-05-05T00:57:19.527Z,1022.89
2023-05-05T00:57:28.921Z,1022.99
2023-05-05T00:57:47.686Z,1022.98
2023-05-05T00:57:57.112Z,1022.99
2023-05-05T00:58:06.500Z,1023.11
2023-05-05T00:58:15.933Z,1022.94
2023-05-05T00:58:25.326Z,1023.00
2023-05-05T00:58:34.720Z,1023.13
2023-05-05T00:58:53.510Z,1022.95
2023-05-05T00:59:02.906Z,1023.07
2023-05-05T00:59:12.316Z,1023.07
2023-05-05T00:59:21.668Z,1023.08
2023-05-05T00:59:31.054Z,1023.00
2023-05-05T00:59:40.458Z,1023.03
2023-05-05T00:59:59.241Z,1023.04
2023-05-05T01:00:08.887Z,1023.08
2023-05-05T01:00:18.134Z,1023.09
2023-05-05T01:00:27.418Z,1023.06
2023-05-05T01:00:36.806Z,1023.01
2023-05-05T01:00:46.248Z,1023.05
2023-05-05T01:01:05.008Z,1023.01
2023-05-05T01:01:14.436Z,1022.98
2023-05-05T01:01:23.792Z,1023.00
2023-05-05T01:01:33.163Z,1022.97
2023-05-05T01:01:42.587Z,1023.01
2023-05-05T01:01:52.050Z,1023.20
2023-05-05T01:02:10.748Z,1022.98
2023-05-05T01:02:20.137Z,1022.99
2023-05-05T01:02:29.643Z,1023.07
2023-05-05T01:02:39.072Z,1023.01
2023-05-05T01:02:48.391Z,1022.96
2023-05-05T01:02:57.754Z,1023.02
2023-05-05T01:03:16.710Z,1023.10
2023-05-05T01:03:26.008Z,1023.00
2023-05-05T01:03:35.334Z,1023.06
2023-05-05T01:03:44.788Z,1023.05
2023-05-05T01:03:54.128Z,1023.02
2023-05-05T01:04:03.524Z,1023.05
2023-05-05T01:04:22.260Z,1023.05
2023-05-05T01:04:31.627Z,1023.07
2023-05-05T01:04:41.006Z,1023.06
2023-05-05T01:04:50.394Z,1023.02
2023-05-05T01:04:59.774Z,1023.04
2023-05-05T01:05:09.180Z,1023.04
2023-05-05T01:05:27.954Z,1023.00
2023-05-05T01:05:37.314Z,1023.10
2023-05-05T01:05:46.698Z,1023.09
2023-05-05T01:05:56.106Z,1023.01
2023-05-05T01:06:05.557Z,1023.09
2023-05-05T01:06:14.945Z,1023.04
2023-05-05T01:06:33.712Z,1022.95
2023-05-05T01:06:43.112Z,1023.11
2023-05-05T01:06:52.503Z,1023.07
2023-05-05T01:07:01.880Z,1023.03
2023-05-05T01:07:11.269Z,1023.04
2023-05-05T01:07:20.674Z,1023.05
2023-05-05T01:07:39.443Z,1023.10
2023-05-05T01:07:48.834Z,1023.15
2023-05-05T01:07:58.216Z,1023.09
2023-05-05T01:08:07.623Z,1023.32
2023-05-05T01:08:17.005Z,1023.22
2023-05-05T01:08:26.384Z,1023.17
2023-05-05T01:08:45.173Z,1023.14
2023-05-05T01:08:54.537Z,1023.13
2023-05-05T01:09:03.934Z,1023.16
2023-05-05T01:09:13.324Z,1023.12
2023-05-05T01:09:22.715Z,1023.16
2023-05-05T01:09:32.082Z,1023.18
2023-05-05T01:09:55.541Z,1023.24
2023-05-05T01:10:11.396Z,1023.17
2023-05-05T01:10:19.584Z,1023.18
2023-05-05T01:10:20.674Z,1023.15
2023-05-05T01:10:28.472Z,1023.12
2023-05-05T01:10:37.873Z,1023.08
2023-05-05T01:10:56.633Z,1023.19
2023-05-05T01:11:06.019Z,1023.21
2023-05-05T01:11:15.406Z,1023.38
2023-05-05T01:11:24.794Z,1023.18
2023-05-05T01:11:34.181Z,1023.17
2023-05-05T01:11:43.572Z,1023.28
2023-05-05T01:12:02.372Z,1023.30
2023-05-05T01:12:11.756Z,1023.22
2023-05-05T01:12:21.198Z,1023.16
2023-05-05T01:12:30.591Z,1023.19
2023-05-05T01:12:39.985Z,1023.31
2023-05-05T01:12:49.356Z,1023.30
2023-05-05T01:13:08.191Z,1023.25
2023-05-05T01:13:17.502Z,1023.23
2023-05-05T01:13:26.910Z,1023.12
2023-05-05T01:13:36.253Z,1023.18
2023-05-05T01:13:45.678Z,1023.17
2023-05-05T01:13:55.083Z,1023.24
2023-05-05T01:14:13.874Z,1023.14
2023-05-05T01:14:23.287Z,1023.15
2023-05-05T01:14:32.655Z,1023.25
2023-05-05T01:14:42.097Z,1023.22
2023-05-05T01:14:51.486Z,1023.19
2023-05-05T01:15:00.883Z,1023.27
2023-05-05T01:15:19.750Z,1023.17
2023-05-05T01:15:29.143Z,1023.22
2023-05-05T01:15:38.540Z,1023.33
2023-05-05T01:15:47.920Z,1023.18
2023-05-05T01:15:57.333Z,1023.22
2023-05-05T01:16:06.775Z,1023.25
2023-05-05T01:16:25.518Z,1023.39
2023-05-05T01:16:35.018Z,1023.26
2023-05-05T01:16:44.290Z,1023.29
2023-05-05T01:16:53.682Z,1023.30
2023-05-05T01:17:03.134Z,1023.24
2023-05-05T01:17:12.484Z,1023.24
2023-05-05T01:17:31.268Z,1023.20
2023-05-05T01:17:40.722Z,1023.29
2023-05-05T01:17:50.098Z,1023.14
2023-05-05T01:17:59.468Z,1023.31
2023-05-05T01:18:08.809Z,1023.43
2023-05-05T01:18:18.188Z,1023.32
2023-05-05T01:18:36.958Z,1023.30
2023-05-05T01:18:46.422Z,1023.28
2023-05-05T01:18:55.755Z,1023.28
2023-05-05T01:19:05.143Z,1023.19
2023-05-05T01:19:14.548Z,1023.28
2023-05-05T01:19:23.924Z,1023.21
2023-05-05T01:19:42.710Z,1023.22
2023-05-05T01:19:52.105Z,1023.24
2023-05-05T01:20:01.524Z,1023.35
2023-05-05T01:20:11.047Z,1023.38
2023-05-05T01:20:20.283Z,1023.19
2023-05-05T01:20:29.671Z,1023.22
2023-05-05T01:20:48.475Z,1023.27
2023-05-05T01:20:57.888Z,1023.35
2023-05-05T01:21:07.378Z,1023.29
2023-05-05T01:21:16.737Z,1023.22
2023-05-05T01:21:26.113Z,1023.25
2023-05-05T01:21:35.498Z,1023.26
2023-05-05T01:21:54.303Z,1023.20
2023-05-05T01:22:03.694Z,1023.27
2023-05-05T01:22:13.078Z,1023.17
2023-05-05T01:22:22.469Z,1023.24
2023-05-05T01:22:31.862Z,1023.25
2023-05-05T01:22:41.245Z,1023.22
2023-05-05T01:23:00.099Z,1023.29
2023-05-05T01:23:09.473Z,1023.23
2023-05-05T01:23:18.852Z,1023.19
2023-05-05T01:23:28.244Z,1023.21
2023-05-05T01:23:37.639Z,1023.21
2023-05-05T01:23:47.012Z,1023.28
2023-05-05T01:24:05.776Z,1023.26
2023-05-05T01:24:15.152Z,1023.21
2023-05-05T01:24:24.528Z,1023.27
2023-05-05T01:24:33.940Z,1023.21
2023-05-05T01:24:43.340Z,1023.24
2023-05-05T01:24:52.713Z,1023.22
2023-05-05T01:25:11.539Z,1023.21
2023-05-05T01:25:20.910Z,1023.25
2023-05-05T01:25:30.290Z,1023.32
2023-05-05T01:25:39.666Z,1023.29
2023-05-05T01:25:49.043Z,1023.26
2023-05-05T01:25:58.415Z,1023.23
2023-05-05T01:26:17.189Z,1023.20
2023-05-05T01:26:26.583Z,1023.28
2023-05-05T01:26:35.980Z,1023.25
2023-05-05T01:26:45.342Z,1023.26
2023-05-05T01:26:55.178Z,1023.24
2023-05-05T01:27:04.575Z,1023.22
2023-05-05T01:27:23.346Z,1023.32
2023-05-05T01:27:32.732Z,1023.26
2023-05-05T01:27:42.161Z,1023.30
2023-05-05T01:27:51.576Z,1023.24
2023-05-05T01:28:00.981Z,1023.28
2023-05-05T01:28:10.385Z,1023.25
2023-05-05T01:28:29.188Z,1023.24
2023-05-05T01:28:38.600Z,1023.24
2023-05-05T01:28:47.962Z,1023.25
2023-05-05T01:28:57.350Z,1023.21
2023-05-05T01:29:06.722Z,1023.18
2023-05-05T01:29:16.089Z,1023.21
2023-05-05T01:29:34.880Z,1023.23
2023-05-05T01:29:44.284Z,1023.26
2023-05-05T01:29:53.662Z,1023.31
2023-05-05T01:30:03.068Z,1023.25
2023-05-05T01:30:12.466Z,1023.30
2023-05-05T01:30:21.850Z,1023.25
2023-05-05T01:30:40.591Z,1023.18
2023-05-05T01:30:50.000Z,1023.15
2023-05-05T01:30:59.385Z,1023.28
2023-05-05T01:31:08.812Z,1023.22
2023-05-05T01:31:18.215Z,1023.26
2023-05-05T01:31:27.616Z,1023.26
2023-05-05T01:31:46.397Z,1023.26
2023-05-05T01:31:55.906Z,1023.27
2023-05-05T01:32:05.171Z,1023.18
2023-05-05T01:32:14.586Z,1023.28
2023-05-05T01:32:23.998Z,1023.24
2023-05-05T01:32:33.376Z,1023.33
2023-05-05T01:32:52.261Z,1023.31
2023-05-05T01:33:01.669Z,1023.29
2023-05-05T01:33:11.056Z,1023.23
2023-05-05T01:33:20.440Z,1023.21
2023-05-05T01:33:29.857Z,1023.12
2023-05-05T01:33:39.246Z,1023.11
2023-05-05T01:33:58.009Z,1023.17
2023-05-05T01:34:07.379Z,1023.11
2023-05-05T01:34:16.773Z,1023.11
2023-05-05T01:34:26.156Z,1023.13
2023-05-05T01:34:35.553Z,1023.24
2023-05-05T01:34:44.957Z,1023.12
2023-05-05T01:35:03.722Z,1023.21
2023-05-05T01:35:13.120Z,1023.20
2023-05-05T01:35:22.533Z,1023.11
2023-05-05T01:35:31.926Z,1023.16
2023-05-05T01:35:41.302Z,1023.25
2023-05-05T01:35:50.700Z,1023.22
2023-05-05T01:36:09.448Z,1023.15
2023-05-05T01:36:18.841Z,1023.17
2023-05-05T01:36:28.217Z,1023.12
2023-05-05T01:36:37.638Z,1023.28
2023-05-05T01:36:47.031Z,1023.21
2023-05-05T01:36:56.430Z,1023.19
2023-05-05T01:37:15.212Z,1023.24
2023-05-05T01:37:24.602Z,1023.17
2023-05-05T01:37:34.009Z,1023.14
2023-05-05T01:37:43.415Z,1023.05
2023-05-05T01:37:52.806Z,1023.14
2023-05-05T01:38:02.170Z,1023.15
2023-05-05T01:38:21.010Z,1023.13
2023-05-05T01:38:30.382Z,1023.11
2023-05-05T01:38:39.776Z,1022.99
2023-05-05T01:38:49.154Z,1023.09
2023-05-05T01:38:58.565Z,1023.06
2023-05-05T01:39:07.948Z,1023.16
2023-05-05T01:39:26.716Z,1023.22
2023-05-05T01:39:36.102Z,1023.11
2023-05-05T01:39:45.478Z,1023.13
2023-05-05T01:39:54.845Z,1023.03
2023-05-05T01:40:04.307Z,1023.10
2023-05-05T01:40:13.654Z,1023.14
2023-05-05T01:40:32.420Z,1023.14
2023-05-05T01:40:41.812Z,1023.10
2023-05-05T01:40:51.184Z,1023.09
2023-05-05T01:41:00.572Z,1023.17
2023-05-05T01:41:09.949Z,1023.13
2023-05-05T01:41:19.352Z,1023.22
2023-05-05T01:41:38.132Z,1023.16
2023-05-05T01:41:47.520Z,1023.11
2023-05-05T01:41:56.979Z,1023.18
2023-05-05T01:42:06.367Z,1023.15
2023-05-05T01:42:15.730Z,1023.10
2023-05-05T01:42:25.135Z,1023.09
2023-05-05T01:42:43.925Z,1023.20
2023-05-05T01:42:53.307Z,1023.12
2023-05-05T01:43:02.698Z,1023.15
2023-05-05T01:43:12.093Z,1023.37
2023-05-05T01:43:21.511Z,1023.08
2023-05-05T01:43:30.893Z,1023.22
2023-05-05T01:43:49.668Z,1023.15
2023-05-05T01:43:59.061Z,1023.04
2023-05-05T01:44:08.453Z,1023.18
2023-05-05T01:44:17.844Z,1023.28
2023-05-05T01:44:27.263Z,1023.15
2023-05-05T01:44:36.686Z,1023.11
2023-05-05T01:44:55.462Z,1023.10
2023-05-05T01:45:04.855Z,1023.11
2023-05-05T01:45:14.296Z,1023.11
2023-05-05T01:45:23.707Z,1023.15
2023-05-05T01:45:33.159Z,1023.21
2023-05-05T01:45:42.536Z,1023.17
2023-05-05T01:46:01.379Z,1023.17
2023-05-05T01:46:10.720Z,1023.27
2023-05-05T01:46:20.218Z,1023.32
2023-05-05T01:46:29.470Z,1023.24
2023-05-05T01:46:38.851Z,1023.33
2023-05-05T01:46:48.232Z,1023.28
2023-05-05T01:47:07.003Z,1023.27
2023-05-05T01:47:16.388Z,1023.22
2023-05-05T01:47:25.850Z,1023.23
2023-05-05T01:47:35.201Z,1023.16
2023-05-05T01:47:44.630Z,1023.13
2023-05-05T01:47:53.994Z,1023.14
2023-05-05T01:48:12.765Z,1023.15
2023-05-05T01:48:22.157Z,1023.14
2023-05-05T01:48:31.561Z,1023.12
2023-05-05T01:48:42.376Z,1023.12
2023-05-05T01:48:50.327Z,1023.14
2023-05-05T01:48:59.732Z,1023.13
2023-05-05T01:49:18.549Z,1023.08
2023-05-05T01:49:27.949Z,1023.17
2023-05-05T01:49:37.366Z,1023.15
2023-05-05T01:49:46.774Z,1023.16
2023-05-05T01:49:56.138Z,1023.13
2023-05-05T01:50:05.698Z,1023.16
2023-05-05T01:50:24.299Z,1023.17
2023-05-05T01:50:33.689Z,1023.16
2023-05-05T01:50:43.082Z,1023.12
2023-05-05T01:50:52.484Z,1023.14
2023-05-05T01:51:01.857Z,1023.15
2023-05-05T01:51:11.248Z,1023.10
2023-05-05T01:51:30.012Z,1023.19
2023-05-05T01:51:39.392Z,1023.15
2023-05-05T01:51:48.788Z,1023.09
2023-05-05T01:51:58.212Z,1023.15
2023-05-05T01:52:07.585Z,1023.10
2023-05-05T01:52:16.971Z,1023.20
2023-05-05T01:52:35.778Z,1023.06
2023-05-05T01:52:45.119Z,1023.18
2023-05-05T01:52:54.488Z,1023.10
2023-05-05T01:53:03.882Z,1023.14
2023-05-05T01:53:13.274Z,1023.16
2023-05-05T01:53:22.654Z,1023.17
2023-05-05T01:53:41.505Z,1023.09
2023-05-05T01:53:50.877Z,1023.13
2023-05-05T01:54:00.278Z,1023.18
2023-05-05T01:54:09.678Z,1023.12
2023-05-05T01:54:19.039Z,1023.10
2023-05-05T01:54:28.415Z,1023.11
2023-05-05T01:54:47.261Z,1023.27
2023-05-05T01:54:56.652Z,1023.22
2023-05-05T01:55:06.031Z,1023.12
2023-05-05T01:55:15.467Z,1023.14
2023-05-05T01:55:24.857Z,1023.05
2023-05-05T01:55:34.264Z,1023.11
2023-05-05T01:55:53.033Z,1023.09
2023-05-05T01:56:02.405Z,1023.13
2023-05-05T01:56:11.810Z,1023.11
2023-05-05T01:56:21.181Z,1023.31
2023-05-05T01:56:30.575Z,1023.15
2023-05-05T01:56:39.974Z,1023.20
2023-05-05T01:56:58.810Z,1023.23
2023-05-05T01:57:08.189Z,1023.21
2023-05-05T01:57:17.576Z,1023.27
2023-05-05T01:57:26.969Z,1023.08
2023-05-05T01:57:36.346Z,1023.01
2023-05-05T01:57:45.733Z,1023.12
2023-05-05T01:58:04.495Z,1023.08
2023-05-05T01:58:13.920Z,1023.15
2023-05-05T01:58:23.321Z,1023.12
2023-05-05T01:58:32.763Z,1023.11
2023-05-05T01:58:42.177Z,1023.15
2023-05-05T01:58:51.581Z,1023.18
2023-05-05T01:59:10.404Z,1023.15
2023-05-05T01:59:19.770Z,1023.19
2023-05-05T01:59:29.185Z,1023.06
2023-05-05T01:59:38.576Z,1023.03
2023-05-05T01:59:47.972Z,1022.99
2023-05-05T01:59:57.369Z,1022.99
2023-05-05T02:00:16.158Z,1023.15
2023-05-05T02:00:25.559Z,1023.12
2023-05-05T02:00:34.956Z,1023.08
2023-05-05T02:00:44.379Z,1023.21
2023-05-05T02:00:53.823Z,1023.06
2023-05-05T02:01:03.228Z,1023.11
2023-05-05T02:01:22.084Z,1023.21
2023-05-05T02:01:31.444Z,1023.05
2023-05-05T02:01:40.878Z,1023.06
2023-05-05T02:01:50.227Z,1023.07
2023-05-05T02:01:59.614Z,1023.03
2023-05-05T02:02:09.013Z,1023.03
2023-05-05T02:02:27.901Z,1023.11
2023-05-05T02:02:37.308Z,1023.12
2023-05-05T02:02:46.838Z,1023.06
2023-05-05T02:02:56.193Z,1023.06
2023-05-05T02:03:05.488Z,1023.08
2023-05-05T02:03:14.977Z,1023.11
2023-05-05T02:03:33.680Z,1023.08
2023-05-05T02:03:43.034Z,1023.01
2023-05-05T02:03:52.498Z,1023.03
2023-05-05T02:04:01.958Z,1023.05
2023-05-05T02:04:11.347Z,1023.00
2023-05-05T02:04:20.734Z,1023.04
2023-05-05T02:04:39.519Z,1023.03
2023-05-05T02:04:48.951Z,1023.06
2023-05-05T02:04:58.352Z,1023.05
2023-05-05T02:05:07.769Z,1023.05
2023-05-05T02:05:17.135Z,1023.01
2023-05-05T02:05:26.580Z,1023.06
2023-05-05T02:05:45.306Z,1023.06
2023-05-05T02:05:54.681Z,1023.08
2023-05-05T02:06:04.084Z,1023.00
2023-05-05T02:06:13.498Z,1023.05
2023-05-05T02:06:22.926Z,1023.00
2023-05-05T02:06:32.367Z,1022.98
2023-05-05T02:06:51.165Z,1023.05
2023-05-05T02:07:05.167Z,1023.00
2023-05-05T02:07:22.567Z,1023.28
2023-05-05T02:07:31.944Z,1023.29
2023-05-05T02:07:41.345Z,1023.08
2023-05-05T02:07:50.763Z,1023.07
2023-05-05T02:08:00.231Z,1022.99
2023-05-05T02:08:09.552Z,1023.09
2023-05-05T02:08:28.345Z,1023.08
2023-05-05T02:08:37.774Z,1023.21
2023-05-05T02:08:47.193Z,1023.02
2023-05-05T02:08:56.576Z,1023.08
2023-05-05T02:09:05.958Z,1023.11
2023-05-05T02:09:15.370Z,1023.13
2023-05-05T02:09:34.181Z,1023.20
2023-05-05T02:09:43.573Z,1023.03
2023-05-05T02:09:52.953Z,1023.28
2023-05-05T02:10:02.355Z,1023.14
2023-05-05T02:10:11.737Z,1023.21
2023-05-05T02:10:21.164Z,1023.35
2023-05-05T02:10:39.988Z,1023.12
2023-05-05T02:10:49.395Z,1023.15
2023-05-05T02:10:58.806Z,1023.19
2023-05-05T02:11:08.208Z,1023.06
2023-05-05T02:11:17.601Z,1023.24
2023-05-05T02:11:26.994Z,1023.20
2023-05-05T02:11:45.824Z,1023.14
2023-05-05T02:11:55.219Z,1023.25
2023-05-05T02:12:04.607Z,1023.01
2023-05-05T02:12:14.017Z,1023.26
2023-05-05T02:12:23.425Z,1023.26
2023-05-05T02:12:32.837Z,1023.04